Aérodrome :
LOGIN :

S'inscrire | Disclaimer

   EN    FR    IT 

 










Légende :    VFR   VFR Marginal   IFR   IFR Intensif   IFR Très Intensif
Visi : 
Plafond : 
>= 8 km
>= 3000ft
5 à 8 km
1000 à 3000 ft
1500m à 5 km
500 à 1000 ft
800 à 1500m
200 à 500 ft
< 800m
< 200 ft
Symboles :   Orages  Brouillard  Fortes neiges  Fortes précipitations  Vent > 20 kt
SIGMETs :   Divers  Orages  Givrage  Turbulence  Onde Orograph.  Cendres Volcan.







- Altitude de l'aérodrome : 12 ft
- Code IATA : BCN


LEBL - Barcelone

DERNIER METAR :
  • 172300Z 19005KT 9999 -DZ SCT015 BKN038 12/10 Q1023 NOSIG

METARs EXPIRÉS :
  • 172230Z 15005KT 9999 -RA SCT015 BKN030 12/10 Q1023 NOSIG
  • 172200Z 18008KT 140V210 9999 SCT015 BKN038 12/10 Q1022 NOSIG
  • 172130Z 24009KT 210V270 9999 SCT015 BKN040 12/11 Q1022 NOSIG
  • 172100Z 25006KT 9999 -DZ FEW015 BKN040 11/10 Q1022 NOSIG
  • 172030Z 23008KT 9999 -DZ FEW015 BKN040 12/10 Q1022 NOSIG

TAF TAF LEBL
Valide du 17 à 18h jusqu'au 18 à 18h UTC


171700Z 1718/1818 13009KT 7000 FEW010 TX14/1813Z TN08/1806Z
TEMPO 1718/1802 4000 RA BR BKN012
TEMPO 1720/1802 19010KT
BECMG 1802/1804 34009KT
BECMG 1812/1814 13009KT
Pas de NOTAMs connus pour ce terrain.



MET'MAP, la Météo Aéronautique d'un coup d'oeil ! - Copyright ORBIFLY Décembre 2007 - Disclaimer

ORBIFLY MET'MAP TEAM :

Programmation & Développement : Alexandra Zaïnal
Conception & Développement : Baudouin d'Aumeries
Co-Programmation & Développement : Marc-Olivier Méhu
Soutien technique & logistique : Manuel Goepfert

Contact : metmap@orbifly.com




SOURCES & CREDITS :

   NOAA